createdAt,value
2023-02-05T00:00:14.253Z,2.64
2023-02-05T00:01:08.312Z,2.51
2023-02-05T00:01:49.292Z,2.56
2023-02-05T00:02:29.376Z,2.39
2023-02-05T00:03:10.316Z,2.36
2023-02-05T00:03:50.337Z,2.25
2023-02-05T00:04:30.248Z,2.26
2023-02-05T00:05:10.363Z,2.45
2023-02-05T00:05:50.277Z,2.14
2023-02-05T00:06:30.305Z,2.39
2023-02-05T00:07:13.248Z,2.39
2023-02-05T00:07:53.306Z,2.45
2023-02-05T00:08:34.259Z,2.42
2023-02-05T00:09:14.329Z,2.58
2023-02-05T00:09:54.249Z,2.45
2023-02-05T00:10:34.331Z,2.47
2023-02-05T00:11:18.243Z,2.23
2023-02-05T00:11:58.298Z,2.36
2023-02-05T00:12:39.252Z,2.52
2023-02-05T00:13:19.513Z,2.32
2023-02-05T00:14:00.225Z,2.60
2023-02-05T00:14:40.288Z,2.50
2023-02-05T00:15:21.255Z,2.48
2023-02-05T00:16:01.293Z,2.52
2023-02-05T00:16:42.457Z,2.61
2023-02-05T00:17:22.523Z,2.71
2023-02-05T00:18:02.275Z,2.63
2023-02-05T00:18:42.329Z,2.63
2023-02-05T00:19:23.268Z,2.72
2023-02-05T00:20:03.554Z,2.77
2023-02-05T00:20:43.240Z,2.77
2023-02-05T00:21:26.310Z,2.81
2023-02-05T00:22:06.238Z,2.67
2023-02-05T00:22:46.330Z,2.72
2023-02-05T00:23:27.268Z,2.93
2023-02-05T00:24:07.350Z,2.81
2023-02-05T00:24:48.222Z,2.87
2023-02-05T00:25:28.287Z,2.96
2023-02-05T00:26:09.232Z,2.91
2023-02-05T00:26:50.016Z,3.00
2023-02-05T00:27:31.300Z,2.90
2023-02-05T00:28:11.337Z,2.85
2023-02-05T00:28:52.243Z,2.76
2023-02-05T00:29:32.322Z,2.80
2023-02-05T00:30:13.252Z,2.78
2023-02-05T00:30:53.369Z,2.92
2023-02-05T00:31:34.276Z,2.90
2023-02-05T00:32:14.279Z,2.91
2023-02-05T00:32:54.210Z,2.59
2023-02-05T00:33:34.284Z,2.72
2023-02-05T00:34:14.220Z,2.72
2023-02-05T00:34:54.291Z,2.38
2023-02-05T00:35:35.595Z,2.50
2023-02-05T00:36:18.283Z,2.56
2023-02-05T00:36:58.213Z,2.62
2023-02-05T00:37:38.282Z,2.83
2023-02-05T00:38:19.198Z,2.76
2023-02-05T00:38:59.283Z,2.64
2023-02-05T00:39:40.220Z,2.38
2023-02-05T00:40:20.268Z,2.56
2023-02-05T00:41:00.177Z,2.23
2023-02-05T00:41:40.295Z,2.53
2023-02-05T00:42:20.195Z,2.43
2023-02-05T00:43:00.271Z,2.70
2023-02-05T00:43:41.215Z,2.82
2023-02-05T00:44:21.261Z,2.70
2023-02-05T00:45:01.203Z,2.68
2023-02-05T00:45:41.267Z,2.39
2023-02-05T00:46:22.270Z,2.58
2023-02-05T00:47:02.348Z,2.68
2023-02-05T00:47:43.168Z,2.49
2023-02-05T00:48:25.089Z,2.66
2023-02-05T00:49:05.207Z,2.82
2023-02-05T00:49:45.257Z,2.49
2023-02-05T00:50:25.208Z,2.55
2023-02-05T00:51:05.274Z,2.63
2023-02-05T00:51:46.238Z,2.75
2023-02-05T00:52:26.339Z,2.76
2023-02-05T00:53:07.166Z,2.85
2023-02-05T00:53:47.284Z,2.79
2023-02-05T00:54:27.197Z,2.67
2023-02-05T00:55:07.283Z,2.70
2023-02-05T00:55:48.207Z,2.78
2023-02-05T00:56:28.256Z,2.79
2023-02-05T00:57:09.217Z,2.68
2023-02-05T00:57:49.335Z,2.83
2023-02-05T00:58:30.185Z,2.81
2023-02-05T00:59:10.292Z,2.60
2023-02-05T00:59:51.183Z,2.18
2023-02-05T01:00:33.445Z,2.25
2023-02-05T01:01:13.283Z,2.35
2023-02-05T01:01:53.342Z,2.52
2023-02-05T01:02:33.227Z,2.60
2023-02-05T01:03:14.336Z,2.69
2023-02-05T01:03:55.185Z,2.41
2023-02-05T01:04:35.235Z,2.31
2023-02-05T01:05:16.172Z,2.37
2023-02-05T01:05:57.011Z,2.40
2023-02-05T01:06:37.181Z,2.61
2023-02-05T01:07:17.296Z,2.56
2023-02-05T01:07:58.171Z,2.66
2023-02-05T01:08:38.303Z,2.58
2023-02-05T01:09:18.192Z,2.76
2023-02-05T01:09:58.266Z,2.65
2023-02-05T01:10:39.182Z,2.67
2023-02-05T01:11:20.220Z,2.67
2023-02-05T01:12:01.188Z,2.24
2023-02-05T01:12:42.260Z,2.41
2023-02-05T01:13:24.165Z,2.50
2023-02-05T01:14:04.211Z,2.46
2023-02-05T01:14:45.200Z,2.44
2023-02-05T01:15:26.264Z,2.33
2023-02-05T01:16:07.246Z,2.27
2023-02-05T01:16:47.259Z,2.38
2023-02-05T01:17:27.203Z,2.44
2023-02-05T01:18:07.231Z,2.48
2023-02-05T01:18:47.165Z,2.57
2023-02-05T01:19:27.272Z,2.54
2023-02-05T01:20:08.175Z,2.35
2023-02-05T01:20:50.282Z,2.41
2023-02-05T01:21:31.166Z,2.48
2023-02-05T01:22:13.528Z,2.50
2023-02-05T01:22:54.219Z,2.43
2023-02-05T01:23:34.303Z,2.43
2023-02-05T01:24:15.177Z,2.59
2023-02-05T01:24:55.228Z,2.58
2023-02-05T01:25:35.502Z,2.52
2023-02-05T01:26:16.251Z,2.72
2023-02-05T01:26:56.162Z,2.75
2023-02-05T01:27:36.257Z,2.65
2023-02-05T01:28:17.293Z,2.74
2023-02-05T01:28:57.247Z,2.60
2023-02-05T01:29:38.167Z,2.79
2023-02-05T01:30:19.222Z,2.78
2023-02-05T01:30:59.240Z,2.89
2023-02-05T01:31:39.336Z,2.92
2023-02-05T01:32:20.156Z,2.84
2023-02-05T01:33:00.222Z,2.87
2023-02-05T01:33:40.183Z,3.04
2023-02-05T01:34:20.272Z,3.07
2023-02-05T01:35:00.170Z,3.00
2023-02-05T01:35:40.215Z,2.77
2023-02-05T01:36:21.142Z,2.95
2023-02-05T01:37:01.208Z,2.92
2023-02-05T01:37:42.138Z,2.71
2023-02-05T01:38:22.539Z,2.83
2023-02-05T01:39:02.179Z,2.96
2023-02-05T01:39:42.216Z,2.98
2023-02-05T01:40:25.178Z,2.91
2023-02-05T01:41:07.113Z,2.72
2023-02-05T01:41:49.141Z,2.98
2023-02-05T01:42:31.842Z,2.89
2023-02-05T01:43:19.161Z,2.90
2023-02-05T01:44:29.164Z,3.05
2023-02-05T01:45:39.158Z,3.06
2023-02-05T01:46:40.215Z,2.99
2023-02-05T01:47:34.151Z,3.07
2023-02-05T01:48:28.156Z,2.54
2023-02-05T01:49:31.162Z,2.21
2023-02-05T01:50:26.139Z,2.51
2023-02-05T01:51:22.133Z,2.63
2023-02-05T01:52:29.166Z,2.69
2023-02-05T01:53:29.131Z,2.67
2023-02-05T01:54:23.140Z,2.66
2023-02-05T01:55:03.147Z,2.71
2023-02-05T01:55:56.290Z,2.72
2023-02-05T01:56:48.193Z,2.76
2023-02-05T01:57:30.228Z,2.89
2023-02-05T01:58:11.104Z,2.80
2023-02-05T01:59:03.204Z,2.99
2023-02-05T01:59:46.114Z,2.94
2023-02-05T02:00:28.136Z,2.60
2023-02-05T02:01:02.186Z,2.49
2023-02-05T02:01:50.193Z,2.62
2023-02-05T02:02:24.195Z,2.59
2023-02-05T02:03:12.112Z,2.64
2023-02-05T02:03:46.194Z,2.69
2023-02-05T02:04:48.163Z,2.66
2023-02-05T02:05:24.211Z,2.80
2023-02-05T02:06:05.181Z,2.60
2023-02-05T02:06:45.176Z,2.48
2023-02-05T02:07:29.135Z,2.70
2023-02-05T02:08:09.215Z,2.69
2023-02-05T02:08:49.151Z,2.54
2023-02-05T02:09:29.256Z,2.34
2023-02-05T02:10:11.098Z,2.58
2023-02-05T02:10:52.172Z,2.69
2023-02-05T02:11:33.121Z,2.54
2023-02-05T02:12:18.176Z,2.72
2023-02-05T02:12:59.106Z,2.73
2023-02-05T02:13:41.165Z,2.54
2023-02-05T02:14:22.094Z,2.83
2023-02-05T02:15:07.171Z,2.76
2023-02-05T02:15:48.131Z,2.78
2023-02-05T02:16:28.159Z,2.75
2023-02-05T02:17:10.108Z,2.72
2023-02-05T02:17:54.228Z,2.80
2023-02-05T02:18:35.087Z,2.69
2023-02-05T02:19:39.162Z,2.83
2023-02-05T02:20:33.090Z,2.89
2023-02-05T02:21:26.536Z,2.95
2023-02-05T02:22:57.098Z,2.55
2023-02-05T02:24:47.138Z,2.79
2023-02-05T02:26:24.099Z,2.84
2023-02-05T02:27:43.242Z,2.93
2023-02-05T02:29:01.092Z,3.00
2023-02-05T02:30:02.194Z,2.95
2023-02-05T02:30:52.196Z,2.90
2023-02-05T02:31:51.286Z,2.91
2023-02-05T02:32:47.093Z,2.96
2023-02-05T02:33:50.172Z,3.04
2023-02-05T02:34:43.109Z,3.05
2023-02-05T02:35:39.156Z,2.98
2023-02-05T02:36:49.065Z,2.95
2023-02-05T02:37:40.130Z,2.96
2023-02-05T02:38:45.077Z,2.99
2023-02-05T02:39:30.165Z,3.05
2023-02-05T02:40:48.100Z,3.20
2023-02-05T02:41:41.148Z,3.13
2023-02-05T02:42:41.050Z,3.18
2023-02-05T02:43:34.393Z,3.12
2023-02-05T02:44:34.063Z,3.01
2023-02-05T02:45:16.124Z,3.05
2023-02-05T02:46:10.087Z,3.09
2023-02-05T02:46:55.274Z,3.06
2023-02-05T02:47:42.060Z,3.26
2023-02-05T02:48:22.115Z,3.26
2023-02-05T02:49:07.076Z,3.25
2023-02-05T02:50:09.114Z,3.20
2023-02-05T02:50:54.306Z,3.20
2023-02-05T02:51:44.088Z,3.21
2023-02-05T02:52:21.167Z,3.31
2023-02-05T02:53:35.063Z,3.40
2023-02-05T02:54:16.190Z,3.28
2023-02-05T02:55:04.250Z,3.40
2023-02-05T02:55:43.816Z,3.46
2023-02-05T02:56:34.248Z,3.37
2023-02-05T02:57:17.061Z,3.53
2023-02-05T02:58:11.035Z,3.61
2023-02-05T02:59:11.077Z,3.59
2023-02-05T03:00:09.057Z,3.57
2023-02-05T03:01:04.122Z,3.63
2023-02-05T03:02:03.069Z,3.67
2023-02-05T03:02:44.332Z,3.56
2023-02-05T03:03:29.140Z,3.58
2023-02-05T03:04:22.031Z,3.55
2023-02-05T03:05:08.178Z,3.36
2023-02-05T03:05:50.055Z,3.34
2023-02-05T03:06:30.124Z,3.43
2023-02-05T03:07:24.053Z,3.52
2023-02-05T03:08:13.118Z,3.49
2023-02-05T03:09:08.127Z,3.52
2023-02-05T03:10:47.023Z,3.51
2023-02-05T03:11:22.193Z,3.45
2023-02-05T03:12:11.055Z,3.50
2023-02-05T03:12:45.108Z,3.36
2023-02-05T03:13:32.104Z,3.32
2023-02-05T03:14:06.158Z,3.56
2023-02-05T03:14:54.066Z,3.57
2023-02-05T03:15:28.120Z,3.49
2023-02-05T03:16:16.092Z,3.58
2023-02-05T03:16:50.097Z,3.58
2023-02-05T03:17:38.038Z,3.52
2023-02-05T03:18:12.138Z,3.64
2023-02-05T03:18:53.070Z,3.53
2023-02-05T03:19:33.112Z,3.48
2023-02-05T03:20:29.040Z,3.35
2023-02-05T03:21:48.110Z,3.40
2023-02-05T03:22:28.094Z,3.39
2023-02-05T03:23:08.357Z,3.35
2023-02-05T03:23:49.035Z,3.40
2023-02-05T03:24:29.072Z,3.39
2023-02-05T03:25:03.107Z,3.37
2023-02-05T03:25:50.042Z,3.42
2023-02-05T03:26:40.156Z,3.49
2023-02-05T03:27:28.032Z,3.50
2023-02-05T03:28:02.127Z,3.41
2023-02-05T03:28:49.031Z,3.33
2023-02-05T03:29:45.059Z,3.49
2023-02-05T03:30:57.140Z,3.45
2023-02-05T03:32:40.032Z,3.43
2023-02-05T03:34:11.030Z,3.41
2023-02-05T03:35:56.042Z,3.39
2023-02-05T03:37:11.012Z,3.30
2023-02-05T03:38:48.030Z,3.18
2023-02-05T03:40:14.013Z,3.34
2023-02-05T03:42:05.049Z,3.37
2023-02-05T03:43:32.014Z,3.41
2023-02-05T03:44:52.008Z,3.10
2023-02-05T03:45:57.073Z,3.24
2023-02-05T03:47:30.053Z,3.36
2023-02-05T03:48:56.002Z,3.32
2023-02-05T03:50:15.018Z,3.38
2023-02-05T03:51:33.019Z,3.33
2023-02-05T03:52:43.039Z,3.43
2023-02-05T03:54:06.026Z,3.28
2023-02-05T03:55:08.992Z,3.24
2023-02-05T03:56:14.982Z,3.29
2023-02-05T03:57:14.996Z,3.32
2023-02-05T03:58:21.020Z,3.29
2023-02-05T03:58:59.128Z,3.21
2023-02-05T03:59:47.016Z,3.20
2023-02-05T04:00:21.081Z,3.15
2023-02-05T04:01:08.016Z,3.19
2023-02-05T04:01:42.074Z,3.32
2023-02-05T04:02:30.043Z,3.28
2023-02-05T04:03:04.050Z,3.15
2023-02-05T04:03:45.008Z,3.35
2023-02-05T04:04:25.063Z,3.37
2023-02-05T04:05:07.012Z,3.30
2023-02-05T04:05:47.093Z,3.34
2023-02-05T04:06:26.981Z,3.27
2023-02-05T04:07:07.045Z,3.35
2023-02-05T04:07:47.977Z,3.24
2023-02-05T04:08:28.039Z,3.30
2023-02-05T04:09:08.027Z,3.25
2023-02-05T04:09:48.033Z,3.32
2023-02-05T04:10:27.977Z,3.35
2023-02-05T04:11:09.422Z,3.33
2023-02-05T04:11:49.016Z,3.17
2023-02-05T04:12:29.076Z,3.40
2023-02-05T04:13:08.975Z,3.30
2023-02-05T04:13:49.124Z,3.39
2023-02-05T04:14:29.002Z,3.33
2023-02-05T04:15:13.072Z,3.38
2023-02-05T04:15:55.954Z,3.36
2023-02-05T04:16:36.086Z,3.30
2023-02-05T04:17:18.982Z,3.33
2023-02-05T04:17:59.036Z,3.31
2023-02-05T04:18:38.965Z,3.23
2023-02-05T04:19:19.036Z,3.12
2023-02-05T04:19:59.086Z,3.12
2023-02-05T04:20:39.037Z,3.21
2023-02-05T04:21:18.948Z,3.23
2023-02-05T04:21:59.005Z,3.09
2023-02-05T04:22:41.960Z,3.16
2023-02-05T04:23:22.066Z,3.16
2023-02-05T04:24:02.043Z,3.10
2023-02-05T04:24:42.028Z,3.05
2023-02-05T04:25:22.968Z,3.08
2023-02-05T04:26:03.030Z,3.06
2023-02-05T04:26:42.951Z,3.00
2023-02-05T04:27:23.062Z,3.00
2023-02-05T04:28:02.957Z,2.97
2023-02-05T04:28:43.008Z,2.89
2023-02-05T04:29:22.934Z,2.93
2023-02-05T04:30:03.077Z,2.88
2023-02-05T04:30:44.032Z,2.66
2023-02-05T04:31:25.082Z,2.81
2023-02-05T04:32:05.953Z,2.79
2023-02-05T04:32:46.032Z,2.72
2023-02-05T04:33:25.954Z,2.79
2023-02-05T04:34:06.014Z,2.83
2023-02-05T04:34:45.945Z,2.91
2023-02-05T04:35:26.028Z,2.91
2023-02-05T04:36:06.993Z,2.73
2023-02-05T04:36:47.116Z,2.92
2023-02-05T04:37:26.952Z,2.86
2023-02-05T04:38:07.022Z,3.01
2023-02-05T04:38:46.970Z,2.96
2023-02-05T04:39:27.094Z,2.93
2023-02-05T04:40:06.962Z,2.98
2023-02-05T04:40:47.020Z,2.90
2023-02-05T04:41:26.976Z,2.99
2023-02-05T04:42:07.015Z,3.10
2023-02-05T04:42:46.948Z,2.79
2023-02-05T04:43:27.038Z,2.79
2023-02-05T04:44:06.962Z,2.69
2023-02-05T04:44:47.020Z,2.74
2023-02-05T04:45:27.938Z,2.71
2023-02-05T04:46:18.664Z,2.76
2023-02-05T04:46:58.966Z,2.71
2023-02-05T04:47:40.122Z,2.80
2023-02-05T04:48:19.937Z,2.71
2023-02-05T04:49:00.005Z,2.62
2023-02-05T04:49:40.950Z,2.57
2023-02-05T04:50:21.993Z,2.60
2023-02-05T04:51:02.923Z,2.59
2023-02-05T04:51:42.988Z,2.56
2023-02-05T04:52:22.944Z,2.54
2023-02-05T04:53:03.078Z,2.60
2023-02-05T04:53:43.924Z,2.69
2023-02-05T04:54:24.035Z,2.67
2023-02-05T04:55:03.919Z,2.73
2023-02-05T04:55:44.008Z,2.41
2023-02-05T04:56:24.945Z,2.61
2023-02-05T04:57:05.000Z,2.52
2023-02-05T04:57:44.940Z,2.53
2023-02-05T04:58:24.976Z,2.55
2023-02-05T04:59:04.914Z,2.64
2023-02-05T04:59:45.016Z,2.70
2023-02-05T05:00:25.924Z,2.79
2023-02-05T05:01:06.019Z,2.85
2023-02-05T05:01:46.899Z,2.90
2023-02-05T05:02:27.099Z,2.73
2023-02-05T05:03:06.956Z,2.80
2023-02-05T05:03:48.001Z,2.73
2023-02-05T05:04:28.938Z,2.79
2023-02-05T05:05:09.070Z,2.61
2023-02-05T05:05:48.918Z,2.67
2023-02-05T05:06:28.991Z,2.65
2023-02-05T05:07:08.926Z,2.64
2023-02-05T05:07:48.989Z,2.58
2023-02-05T05:08:29.957Z,2.52
2023-02-05T05:09:09.986Z,2.50
2023-02-05T05:09:52.381Z,2.45
2023-02-05T05:10:32.999Z,2.46
2023-02-05T05:11:24.934Z,2.41
2023-02-05T05:12:04.972Z,2.53
2023-02-05T05:12:45.933Z,2.39
2023-02-05T05:13:25.982Z,2.55
2023-02-05T05:14:06.956Z,2.58
2023-02-05T05:14:46.959Z,2.62
2023-02-05T05:15:26.907Z,2.60
2023-02-05T05:16:07.043Z,2.64
2023-02-05T05:16:46.912Z,2.72
2023-02-05T05:17:27.021Z,2.73
2023-02-05T05:18:06.906Z,2.76
2023-02-05T05:18:47.971Z,2.77
2023-02-05T05:19:27.914Z,2.74
2023-02-05T05:20:08.009Z,2.82
2023-02-05T05:20:47.882Z,2.75
2023-02-05T05:21:27.953Z,2.78
2023-02-05T05:22:07.912Z,2.69
2023-02-05T05:22:47.975Z,2.79
2023-02-05T05:23:28.924Z,2.79
2023-02-05T05:24:08.982Z,2.75
2023-02-05T05:24:48.914Z,2.78
2023-02-05T05:25:30.244Z,2.82
2023-02-05T05:26:12.880Z,2.80
2023-02-05T05:26:52.955Z,2.86
2023-02-05T05:27:32.891Z,2.80
2023-02-05T05:28:13.035Z,2.79
2023-02-05T05:28:52.917Z,2.74
2023-02-05T05:29:33.111Z,2.83
2023-02-05T05:30:13.902Z,2.87
2023-02-05T05:30:54.993Z,2.90
2023-02-05T05:31:34.930Z,2.93
2023-02-05T05:32:14.989Z,2.85
2023-02-05T05:32:54.874Z,2.87
2023-02-05T05:33:34.947Z,2.73
2023-02-05T05:34:15.864Z,2.54
2023-02-05T05:34:57.119Z,2.77
2023-02-05T05:35:37.906Z,2.65
2023-02-05T05:36:17.958Z,2.74
2023-02-05T05:36:59.867Z,2.75
2023-02-05T05:37:39.954Z,2.72
2023-02-05T05:38:19.896Z,2.55
2023-02-05T05:39:19.903Z,2.62
2023-02-05T05:40:18.871Z,2.66
2023-02-05T05:41:17.935Z,2.65
2023-02-05T05:42:10.712Z,2.67
2023-02-05T05:43:16.893Z,2.48
2023-02-05T05:43:50.948Z,2.42
2023-02-05T05:44:37.887Z,2.36
2023-02-05T05:45:11.936Z,2.43
2023-02-05T05:45:59.902Z,2.62
2023-02-05T05:46:40.906Z,2.45
2023-02-05T05:47:34.896Z,2.58
2023-02-05T05:48:28.889Z,2.45
2023-02-05T05:49:22.886Z,2.34
2023-02-05T05:50:17.882Z,2.33
2023-02-05T05:50:58.606Z,2.43
2023-02-05T05:51:45.882Z,2.31
2023-02-05T05:52:19.582Z,2.32
2023-02-05T05:53:06.851Z,2.36
2023-02-05T05:53:40.558Z,2.16
2023-02-05T05:54:28.865Z,2.29
2023-02-05T05:55:02.607Z,2.06
2023-02-05T05:55:49.862Z,2.05
2023-02-05T05:56:23.745Z,1.99
2023-02-05T05:57:10.880Z,1.82
2023-02-05T05:57:44.576Z,1.66
2023-02-05T05:58:32.863Z,1.74
2023-02-05T05:59:06.536Z,1.65
2023-02-05T05:59:53.851Z,1.74
2023-02-05T06:00:27.548Z,1.73
2023-02-05T06:01:14.866Z,1.68
2023-02-05T06:01:48.559Z,1.74
2023-02-05T06:02:36.948Z,1.75
2023-02-05T06:03:11.249Z,1.86
2023-02-05T06:03:57.858Z,1.93
2023-02-05T06:04:31.684Z,1.79
2023-02-05T06:05:19.842Z,1.78
2023-02-05T06:05:53.588Z,1.91
2023-02-05T06:06:41.840Z,1.84
2023-02-05T06:07:15.621Z,1.86
2023-02-05T06:07:55.862Z,1.84
2023-02-05T06:08:30.026Z,1.91
2023-02-05T06:09:03.658Z,1.89
2023-02-05T06:09:43.834Z,2.11
2023-02-05T06:10:18.914Z,1.89
2023-02-05T06:10:52.605Z,1.83
2023-02-05T06:11:32.873Z,1.90
2023-02-05T06:12:06.917Z,1.94
2023-02-05T06:12:40.563Z,2.09
2023-02-05T06:13:21.835Z,1.91
2023-02-05T06:13:55.938Z,2.05
2023-02-05T06:14:29.624Z,2.01
2023-02-05T06:15:10.847Z,1.83
2023-02-05T06:15:44.912Z,1.74
2023-02-05T06:16:18.657Z,1.86
2023-02-05T06:17:01.832Z,1.89
2023-02-05T06:17:35.884Z,1.81
2023-02-05T06:18:09.524Z,1.85
2023-02-05T06:18:50.877Z,1.99
2023-02-05T06:19:24.905Z,1.90
2023-02-05T06:19:58.564Z,1.89
2023-02-05T06:20:38.844Z,1.73
2023-02-05T06:21:12.938Z,1.88
2023-02-05T06:21:46.559Z,1.76
2023-02-05T06:22:26.815Z,1.71
2023-02-05T06:23:00.905Z,1.64
2023-02-05T06:23:34.702Z,1.79
2023-02-05T06:24:14.836Z,1.78
2023-02-05T06:24:48.908Z,1.71
2023-02-05T06:25:22.531Z,1.81
2023-02-05T06:26:03.812Z,1.76
2023-02-05T06:26:37.915Z,1.78
2023-02-05T06:27:11.539Z,1.86
2023-02-05T06:27:51.871Z,2.00
2023-02-05T06:28:25.892Z,2.00
2023-02-05T06:29:03.097Z,1.98
2023-02-05T06:29:42.822Z,2.11
2023-02-05T06:30:17.880Z,2.02
2023-02-05T06:30:52.648Z,1.95
2023-02-05T06:31:32.875Z,2.06
2023-02-05T06:32:06.925Z,2.10
2023-02-05T06:32:40.495Z,1.95
2023-02-05T06:33:20.822Z,2.15
2023-02-05T06:33:54.883Z,2.13
2023-02-05T06:34:28.558Z,2.10
2023-02-05T06:35:09.843Z,2.12
2023-02-05T06:35:43.892Z,2.09
2023-02-05T06:36:17.527Z,1.96
2023-02-05T06:36:57.799Z,2.04
2023-02-05T06:37:46.826Z,2.06
2023-02-05T06:38:21.550Z,2.15
2023-02-05T06:39:02.798Z,2.05
2023-02-05T06:39:37.465Z,2.13
2023-02-05T06:40:18.832Z,2.03
2023-02-05T06:40:58.890Z,1.99
2023-02-05T06:41:38.817Z,2.12
2023-02-05T06:42:18.899Z,2.11
2023-02-05T06:42:59.815Z,2.05
2023-02-05T06:43:40.867Z,2.10
2023-02-05T06:44:20.797Z,2.07
2023-02-05T06:45:00.894Z,2.19
2023-02-05T06:45:40.860Z,1.99
2023-02-05T06:46:20.903Z,2.22
2023-02-05T06:47:00.820Z,2.24
2023-02-05T06:47:41.862Z,2.28
2023-02-05T06:48:21.828Z,2.18
2023-02-05T06:49:01.874Z,2.38
2023-02-05T06:49:41.812Z,2.38
2023-02-05T06:50:22.872Z,2.38
2023-02-05T06:51:02.826Z,2.45
2023-02-05T06:51:43.925Z,2.48
2023-02-05T06:52:23.780Z,2.40
2023-02-05T06:53:03.983Z,2.43
2023-02-05T06:53:43.825Z,2.33
2023-02-05T06:54:24.059Z,2.31
2023-02-05T06:55:03.780Z,2.28
2023-02-05T06:55:44.935Z,2.22
2023-02-05T06:56:24.798Z,2.24
2023-02-05T06:57:05.075Z,2.28
2023-02-05T06:57:44.787Z,2.35
2023-02-05T06:58:24.847Z,2.13
2023-02-05T06:59:04.765Z,2.07
2023-02-05T06:59:45.859Z,2.00
2023-02-05T07:00:25.839Z,2.12
2023-02-05T07:01:05.928Z,2.28
2023-02-05T07:01:45.933Z,2.21
2023-02-05T07:02:48.933Z,2.19
2023-02-05T07:03:35.782Z,2.10
2023-02-05T07:04:09.841Z,2.21
2023-02-05T07:04:56.781Z,2.30
2023-02-05T07:05:30.845Z,2.32
2023-02-05T07:06:17.808Z,2.34
2023-02-05T07:06:58.820Z,2.25
2023-02-05T07:07:52.840Z,2.13
2023-02-05T07:08:47.809Z,2.23
2023-02-05T07:09:41.768Z,2.47
2023-02-05T07:10:35.777Z,2.42
2023-02-05T07:11:29.770Z,2.43
2023-02-05T07:12:16.815Z,2.56
2023-02-05T07:12:50.884Z,2.65
2023-02-05T07:13:37.785Z,2.64
2023-02-05T07:14:11.825Z,2.70
2023-02-05T07:14:58.790Z,2.49
2023-02-05T07:15:33.132Z,2.59
2023-02-05T07:16:20.832Z,2.52
2023-02-05T07:16:54.849Z,2.60
2023-02-05T07:17:41.776Z,2.51
2023-02-05T07:18:15.859Z,2.40
2023-02-05T07:19:04.790Z,2.61
2023-02-05T07:19:38.858Z,2.46
2023-02-05T07:20:25.772Z,2.45
2023-02-05T07:20:59.834Z,2.38
2023-02-05T07:21:46.784Z,2.65
2023-02-05T07:22:21.862Z,2.53
2023-02-05T07:23:01.826Z,2.47
2023-02-05T07:23:42.834Z,2.42
2023-02-05T07:24:22.777Z,2.23
2023-02-05T07:25:04.564Z,2.26
2023-02-05T07:25:44.792Z,2.45
2023-02-05T07:26:24.851Z,2.56
2023-02-05T07:27:05.772Z,2.66
2023-02-05T07:27:45.834Z,2.61
2023-02-05T07:28:25.840Z,2.61
2023-02-05T07:29:06.821Z,2.83
2023-02-05T07:29:46.769Z,2.75
2023-02-05T07:30:26.816Z,2.81
2023-02-05T07:31:12.856Z,2.84
2023-02-05T07:31:52.889Z,2.88
2023-02-05T07:32:32.766Z,3.02
2023-02-05T07:33:12.825Z,2.90
2023-02-05T07:33:53.993Z,2.91
2023-02-05T07:34:33.836Z,3.05
2023-02-05T07:35:14.761Z,3.05
2023-02-05T07:35:54.880Z,2.99
2023-02-05T07:36:34.748Z,3.06
2023-02-05T07:37:14.808Z,3.08
2023-02-05T07:37:54.740Z,3.08
2023-02-05T07:38:34.823Z,2.97
2023-02-05T07:39:14.787Z,3.07
2023-02-05T07:39:54.856Z,2.86
2023-02-05T07:40:34.740Z,3.03
2023-02-05T07:41:17.850Z,2.92
2023-02-05T07:41:59.756Z,2.91
2023-02-05T07:42:39.954Z,2.95
2023-02-05T07:43:19.726Z,2.80
2023-02-05T07:44:00.794Z,2.75
2023-02-05T07:44:40.744Z,2.60
2023-02-05T07:45:20.806Z,2.79
2023-02-05T07:46:04.744Z,2.87
2023-02-05T07:46:44.885Z,2.97
2023-02-05T07:47:24.734Z,2.96
2023-02-05T07:48:04.839Z,3.04
2023-02-05T07:48:45.718Z,3.06
2023-02-05T07:49:25.783Z,3.09
2023-02-05T07:50:05.760Z,3.20
2023-02-05T07:50:50.808Z,3.29
2023-02-05T07:51:31.743Z,3.19
2023-02-05T07:52:25.743Z,3.29
2023-02-05T07:53:19.743Z,3.18
2023-02-05T07:54:13.872Z,3.11
2023-02-05T07:55:07.738Z,3.06
2023-02-05T07:56:01.731Z,3.00
2023-02-05T07:56:59.735Z,3.14
2023-02-05T07:57:54.729Z,3.01
2023-02-05T07:58:48.766Z,3.13
2023-02-05T07:59:42.744Z,3.19
2023-02-05T08:00:31.778Z,3.11
2023-02-05T08:01:09.897Z,3.15
2023-02-05T08:01:56.721Z,3.22
2023-02-05T08:02:30.769Z,3.27
2023-02-05T08:03:17.700Z,3.25
2023-02-05T08:03:51.784Z,3.29
2023-02-05T08:04:38.746Z,3.31
2023-02-05T08:05:12.862Z,3.34
2023-02-05T08:05:53.756Z,3.28
2023-02-05T08:06:33.797Z,3.31
2023-02-05T08:07:13.715Z,3.18
2023-02-05T08:07:53.787Z,3.27
2023-02-05T08:08:33.694Z,3.15
2023-02-05T08:09:14.431Z,3.18
2023-02-05T08:09:55.691Z,3.13
2023-02-05T08:10:35.768Z,3.25
2023-02-05T08:11:21.744Z,3.30
2023-02-05T08:12:01.791Z,3.20
2023-02-05T08:12:41.702Z,3.23
2023-02-05T08:13:21.770Z,3.18
2023-02-05T08:14:02.698Z,3.26
2023-02-05T08:14:43.831Z,3.31
2023-02-05T08:15:24.690Z,3.45
2023-02-05T08:16:04.804Z,3.51
2023-02-05T08:16:44.707Z,3.53
2023-02-05T08:17:24.799Z,3.59
2023-02-05T08:18:05.736Z,3.58
2023-02-05T08:18:45.892Z,3.60
2023-02-05T08:19:26.726Z,3.56
2023-02-05T08:20:09.704Z,3.44
2023-02-05T08:20:50.687Z,3.54
2023-02-05T08:21:30.798Z,3.62
2023-02-05T08:22:11.699Z,3.58
2023-02-05T08:22:51.815Z,3.64
2023-02-05T08:23:32.683Z,3.60
2023-02-05T08:24:12.779Z,3.49
2023-02-05T08:24:52.686Z,3.56
2023-02-05T08:25:32.964Z,3.57
2023-02-05T08:26:13.702Z,3.38
2023-02-05T08:26:53.747Z,3.55
2023-02-05T08:27:34.741Z,3.60
2023-02-05T08:28:15.802Z,3.56
2023-02-05T08:28:55.686Z,3.45
2023-02-05T08:29:35.764Z,3.31
2023-02-05T08:30:20.685Z,3.43
2023-02-05T08:31:00.806Z,3.38
2023-02-05T08:31:41.726Z,3.38
2023-02-05T08:32:21.744Z,3.27
2023-02-05T08:33:01.708Z,3.21
2023-02-05T08:33:41.797Z,3.30
2023-02-05T08:34:22.668Z,3.50
2023-02-05T08:35:02.773Z,3.54
2023-02-05T08:35:43.680Z,3.53
2023-02-05T08:36:23.732Z,3.65
2023-02-05T08:37:04.688Z,3.55
2023-02-05T08:37:44.817Z,3.67
2023-02-05T08:38:26.691Z,3.83
2023-02-05T08:39:06.771Z,3.80
2023-02-05T08:39:47.671Z,3.80
2023-02-05T08:40:27.796Z,3.87
2023-02-05T08:41:18.667Z,3.86
2023-02-05T08:41:58.807Z,3.76
2023-02-05T08:42:39.687Z,3.78
2023-02-05T08:43:19.785Z,3.82
2023-02-05T08:43:59.696Z,3.86
2023-02-05T08:44:40.750Z,3.79
2023-02-05T08:45:20.663Z,3.78
2023-02-05T08:46:00.785Z,3.82
2023-02-05T08:46:49.630Z,3.77
2023-02-05T08:47:29.726Z,3.80
2023-02-05T08:48:10.652Z,3.94
2023-02-05T08:48:50.759Z,3.91
2023-02-05T08:49:30.676Z,3.99
2023-02-05T08:50:11.797Z,4.04
2023-02-05T08:50:53.668Z,4.09
2023-02-05T08:51:35.598Z,3.92
2023-02-05T08:52:15.671Z,3.74
2023-02-05T08:52:55.712Z,3.70
2023-02-05T08:53:37.653Z,3.60
2023-02-05T08:54:17.743Z,3.68
2023-02-05T08:54:58.682Z,3.79
2023-02-05T08:55:39.197Z,3.75
2023-02-05T08:56:20.650Z,3.82
2023-02-05T08:57:01.124Z,3.96
2023-02-05T08:57:40.653Z,3.96
2023-02-05T08:58:21.774Z,4.03
2023-02-05T08:59:02.690Z,3.91
2023-02-05T08:59:42.720Z,4.00
2023-02-05T09:00:23.653Z,3.94
2023-02-05T09:01:17.761Z,4.05
2023-02-05T09:01:58.679Z,4.05
2023-02-05T09:02:38.692Z,4.21
2023-02-05T09:03:19.676Z,4.18
2023-02-05T09:04:00.013Z,4.11
2023-02-05T09:04:39.722Z,4.11
2023-02-05T09:05:19.723Z,3.88
2023-02-05T09:05:59.667Z,3.73
2023-02-05T09:06:39.960Z,3.81
2023-02-05T09:07:20.630Z,3.78
2023-02-05T09:08:00.734Z,3.69
2023-02-05T09:08:41.630Z,3.81
2023-02-05T09:09:22.733Z,3.92
2023-02-05T09:10:02.642Z,3.95
2023-02-05T09:10:42.713Z,4.00
2023-02-05T09:11:32.658Z,3.88
2023-02-05T09:12:13.777Z,3.87
2023-02-05T09:12:55.639Z,3.81
2023-02-05T09:13:35.703Z,3.89
2023-02-05T09:14:23.626Z,3.80
2023-02-05T09:14:57.354Z,3.82
2023-02-05T09:15:48.617Z,3.94
2023-02-05T09:16:23.573Z,3.78
2023-02-05T09:17:03.661Z,3.74
2023-02-05T09:17:37.696Z,3.85
2023-02-05T09:18:12.458Z,3.97
2023-02-05T09:18:52.641Z,3.90
2023-02-05T09:19:26.694Z,3.97
2023-02-05T09:20:00.405Z,3.97
2023-02-05T09:20:41.622Z,3.97
2023-02-05T09:21:16.767Z,3.90
2023-02-05T09:21:50.348Z,3.97
2023-02-05T09:22:30.652Z,3.94
2023-02-05T09:23:04.751Z,3.93
2023-02-05T09:23:39.383Z,3.68
2023-02-05T09:24:19.635Z,3.73
2023-02-05T09:24:53.683Z,3.64
2023-02-05T09:25:29.277Z,3.80
2023-02-05T09:26:10.623Z,3.84
2023-02-05T09:26:44.725Z,3.60
2023-02-05T09:27:20.888Z,3.74
2023-02-05T09:28:00.690Z,3.67
2023-02-05T09:28:34.665Z,3.71
2023-02-05T09:29:08.355Z,3.64
2023-02-05T09:29:49.626Z,3.75
2023-02-05T09:30:23.700Z,3.58
2023-02-05T09:30:57.451Z,3.67
2023-02-05T09:31:38.712Z,3.81
2023-02-05T09:32:12.673Z,3.59
2023-02-05T09:32:46.313Z,3.56
2023-02-05T09:33:27.637Z,3.55
2023-02-05T09:34:01.681Z,3.71
2023-02-05T09:34:35.321Z,3.83
2023-02-05T09:35:16.602Z,3.89
2023-02-05T09:35:50.687Z,3.88
2023-02-05T09:36:25.026Z,4.00
2023-02-05T09:37:04.617Z,3.99